createdAt,value
2018-09-15T00:00:54.269Z,20.30
2018-09-15T00:03:28.621Z,20.30
2018-09-15T00:06:02.986Z,20.30
2018-09-15T00:08:37.252Z,20.30
2018-09-15T00:11:11.634Z,20.30
2018-09-15T00:13:45.928Z,20.30
2018-09-15T00:16:20.338Z,20.30
2018-09-15T00:18:54.668Z,20.30
2018-09-15T00:21:28.983Z,20.30
2018-09-15T00:24:03.311Z,20.20
2018-09-15T00:26:37.703Z,20.20
2018-09-15T00:29:12.019Z,20.20
2018-09-15T00:31:46.350Z,20.20
2018-09-15T00:34:20.720Z,20.10
2018-09-15T00:36:55.127Z,20.10
2018-09-15T00:39:29.386Z,20.10
2018-09-15T00:42:03.742Z,20.10
2018-09-15T00:44:38.025Z,20.10
2018-09-15T00:47:12.375Z,20.10
2018-09-15T00:49:46.706Z,20.10
2018-09-15T00:52:21.021Z,20.10
2018-09-15T00:54:55.340Z,20.00
2018-09-15T00:57:29.726Z,20.00
2018-09-15T01:00:04.542Z,20.00
2018-09-15T01:02:38.833Z,20.00
2018-09-15T01:05:13.116Z,20.00
2018-09-15T01:07:47.458Z,20.00
2018-09-15T01:10:21.766Z,19.90
2018-09-15T01:12:56.088Z,19.90
2018-09-15T01:15:30.392Z,19.90
2018-09-15T01:18:04.702Z,19.90
2018-09-15T01:20:39.087Z,19.80
2018-09-15T01:23:13.505Z,19.90
2018-09-15T01:25:47.801Z,19.80
2018-09-15T01:28:22.165Z,19.80
2018-09-15T01:30:56.486Z,19.80
2018-09-15T01:33:31.000Z,19.80
2018-09-15T01:36:05.341Z,19.80
2018-09-15T01:38:39.768Z,19.80
2018-09-15T01:41:14.101Z,19.80
2018-09-15T01:43:48.745Z,19.80
2018-09-15T01:46:23.071Z,19.80
2018-09-15T01:48:57.545Z,19.80
2018-09-15T01:51:31.895Z,19.90
2018-09-15T01:54:06.210Z,19.90
2018-09-15T01:56:40.532Z,19.90
2018-09-15T01:59:21.450Z,19.80
2018-09-15T02:01:55.858Z,19.80
2018-09-15T02:04:30.141Z,19.80
2018-09-15T02:07:04.481Z,19.80
2018-09-15T02:09:38.880Z,19.80
2018-09-15T02:12:13.138Z,19.80
2018-09-15T02:14:47.479Z,19.80
2018-09-15T02:17:21.804Z,19.80
2018-09-15T02:19:56.227Z,19.80
2018-09-15T02:22:30.608Z,19.80
2018-09-15T02:25:04.990Z,19.80
2018-09-15T02:27:39.289Z,19.80
2018-09-15T02:30:13.693Z,19.80
2018-09-15T02:32:48.017Z,19.80
2018-09-15T02:35:22.327Z,19.80
2018-09-15T02:37:56.708Z,19.80
2018-09-15T02:40:31.040Z,19.80
2018-09-15T02:43:05.413Z,19.80
2018-09-15T02:45:39.721Z,19.90
2018-09-15T02:48:14.029Z,19.90
2018-09-15T02:50:48.358Z,19.90
2018-09-15T02:53:22.677Z,19.80
2018-09-15T02:55:57.026Z,19.80
2018-09-15T02:58:31.350Z,19.90
2018-09-15T03:01:05.725Z,19.90
2018-09-15T03:03:40.022Z,19.90
2018-09-15T03:06:14.325Z,19.80
2018-09-15T03:08:48.745Z,19.90
2018-09-15T03:11:23.050Z,19.80
2018-09-15T03:13:57.370Z,19.80
2018-09-15T03:16:31.676Z,19.80
2018-09-15T03:19:06.008Z,19.80
2018-09-15T03:21:40.329Z,19.80
2018-09-15T03:24:14.622Z,19.80
2018-09-15T03:26:48.918Z,19.80
2018-09-15T03:29:23.209Z,19.80
2018-09-15T03:31:57.610Z,19.80
2018-09-15T03:34:31.922Z,19.80
2018-09-15T03:37:06.377Z,19.80
2018-09-15T03:39:40.701Z,19.80
2018-09-15T03:42:15.093Z,19.80
2018-09-15T03:44:49.447Z,19.80
2018-09-15T03:47:24.097Z,19.80
2018-09-15T03:49:58.446Z,19.80
2018-09-15T03:52:32.813Z,19.80
2018-09-15T03:55:07.153Z,19.80
2018-09-15T03:57:41.493Z,19.80
2018-09-15T04:00:15.821Z,19.70
2018-09-15T04:02:50.161Z,19.70
2018-09-15T04:05:24.450Z,19.70
2018-09-15T04:07:58.854Z,19.70
2018-09-15T04:10:33.213Z,19.70
2018-09-15T04:13:07.535Z,19.70
2018-09-15T04:15:41.836Z,19.70
2018-09-15T04:18:17.312Z,19.70
2018-09-15T04:20:51.621Z,19.70
2018-09-15T04:23:25.963Z,19.80
2018-09-15T04:26:00.299Z,19.80
2018-09-15T04:28:34.630Z,19.80
2018-09-15T04:31:08.937Z,19.80
2018-09-15T04:33:43.358Z,19.70
2018-09-15T04:36:17.685Z,19.70
2018-09-15T04:38:51.960Z,19.70
2018-09-15T04:41:26.311Z,19.70
2018-09-15T04:44:00.639Z,19.70
2018-09-15T04:46:34.974Z,19.60
2018-09-15T04:49:09.288Z,19.60
2018-09-15T04:51:43.601Z,19.60
2018-09-15T04:54:17.916Z,19.60
2018-09-15T04:56:52.234Z,19.60
2018-09-15T04:59:26.709Z,19.60
2018-09-15T05:02:01.100Z,19.60
2018-09-15T05:04:35.401Z,19.60
2018-09-15T05:07:09.707Z,19.70
2018-09-15T05:09:44.010Z,19.70
2018-09-15T05:12:18.451Z,19.70
2018-09-15T05:14:52.814Z,19.70
2018-09-15T05:17:27.123Z,19.70
2018-09-15T05:20:01.445Z,19.70
2018-09-15T05:22:35.777Z,19.70
2018-09-15T05:25:10.157Z,19.70
2018-09-15T05:27:44.546Z,19.70
2018-09-15T05:30:18.850Z,19.70
2018-09-15T05:32:53.168Z,19.70
2018-09-15T05:35:27.453Z,19.70
2018-09-15T05:38:01.777Z,19.70
2018-09-15T05:40:36.101Z,19.70
2018-09-15T05:43:10.445Z,19.70
2018-09-15T05:45:44.797Z,19.70
2018-09-15T05:48:19.121Z,19.70
2018-09-15T05:50:53.444Z,19.70
2018-09-15T05:53:27.755Z,19.70
2018-09-15T05:56:02.100Z,19.80
2018-09-15T05:58:36.373Z,19.80
2018-09-15T06:01:10.771Z,19.80
2018-09-15T06:03:45.091Z,19.80
2018-09-15T06:06:19.397Z,19.80
2018-09-15T06:08:53.781Z,19.90
2018-09-15T06:11:28.083Z,19.90
2018-09-15T06:14:02.392Z,19.90
2018-09-15T06:16:36.794Z,19.90
2018-09-15T06:19:11.097Z,19.90
2018-09-15T06:21:45.399Z,20.00
2018-09-15T06:24:19.709Z,20.00
2018-09-15T06:26:54.107Z,20.00
2018-09-15T06:29:28.406Z,20.10
2018-09-15T06:32:03.018Z,20.00
2018-09-15T06:34:37.317Z,20.10
2018-09-15T06:37:11.617Z,20.10
2018-09-15T06:39:45.909Z,20.10
2018-09-15T06:42:20.306Z,20.20
2018-09-15T06:44:54.594Z,20.20
2018-09-15T06:47:28.917Z,20.20
2018-09-15T06:50:03.466Z,20.30
2018-09-15T06:52:37.785Z,20.30
2018-09-15T06:55:12.092Z,20.40
2018-09-15T06:57:46.462Z,20.40
2018-09-15T07:00:20.733Z,20.40
2018-09-15T07:02:55.073Z,20.40
2018-09-15T07:05:29.406Z,20.40
2018-09-15T07:08:03.721Z,20.50
2018-09-15T07:10:38.809Z,20.50
2018-09-15T07:13:13.330Z,20.50
2018-09-15T07:15:54.253Z,20.50
2018-09-15T07:18:28.550Z,20.50
2018-09-15T07:21:03.015Z,20.50
2018-09-15T07:23:37.342Z,20.50
2018-09-15T07:26:11.651Z,20.50
2018-09-15T07:28:46.017Z,20.50
2018-09-15T07:31:20.386Z,20.40
2018-09-15T07:33:54.775Z,20.40
2018-09-15T07:36:29.087Z,20.40
2018-09-15T07:39:04.433Z,20.40
2018-09-15T07:41:38.846Z,20.40
2018-09-15T07:44:13.232Z,20.50
2018-09-15T07:46:47.637Z,20.50
2018-09-15T07:49:23.039Z,20.50
2018-09-15T07:51:57.377Z,20.60
2018-09-15T07:54:31.728Z,20.60
2018-09-15T07:57:06.133Z,20.70
2018-09-15T07:59:40.549Z,20.70
2018-09-15T08:02:20.861Z,20.80
2018-09-15T08:04:55.266Z,20.90
2018-09-15T08:07:29.560Z,21.00
2018-09-15T08:10:04.035Z,21.00
2018-09-15T08:12:38.350Z,21.10
2018-09-15T08:15:12.714Z,21.10
2018-09-15T08:17:47.019Z,21.10
2018-09-15T08:20:21.388Z,21.20
2018-09-15T08:22:55.667Z,21.20
2018-09-15T08:25:30.144Z,21.20
2018-09-15T08:28:04.484Z,21.20
2018-09-15T08:30:38.802Z,21.30
2018-09-15T08:33:13.138Z,21.30
2018-09-15T08:35:47.481Z,21.30
2018-09-15T08:38:21.921Z,21.40
2018-09-15T08:40:56.233Z,21.50
2018-09-15T08:43:30.551Z,21.60
2018-09-15T08:46:04.873Z,21.70
2018-09-15T08:48:39.210Z,21.90
2018-09-15T08:51:13.559Z,22.00
2018-09-15T08:53:47.909Z,22.20
2018-09-15T08:56:22.222Z,22.30
2018-09-15T08:58:56.518Z,22.40
2018-09-15T09:01:30.949Z,22.60
2018-09-15T09:04:05.290Z,22.70
2018-09-15T09:06:39.609Z,22.80
2018-09-15T09:09:13.962Z,23.00
2018-09-15T09:11:48.347Z,23.00
2018-09-15T09:14:22.720Z,23.10
2018-09-15T09:16:57.059Z,23.10
2018-09-15T09:19:31.438Z,23.10
2018-09-15T09:22:05.801Z,23.10
2018-09-15T09:24:40.157Z,23.20
2018-09-15T09:27:14.511Z,23.30
2018-09-15T09:29:48.878Z,23.30
2018-09-15T09:32:23.320Z,23.40
2018-09-15T09:34:57.614Z,23.60
2018-09-15T09:37:31.990Z,23.70
2018-09-15T09:40:06.392Z,23.70
2018-09-15T09:42:40.785Z,23.80
2018-09-15T09:45:15.086Z,23.80
2018-09-15T09:47:49.450Z,23.90
2018-09-15T09:50:23.750Z,23.90
2018-09-15T09:52:58.238Z,23.90
2018-09-15T09:55:32.523Z,23.80
2018-09-15T09:58:07.357Z,23.70
2018-09-15T10:00:46.821Z,23.70
2018-09-15T10:03:21.166Z,23.60
2018-09-15T10:05:55.535Z,23.60
2018-09-15T10:08:29.929Z,23.60
2018-09-15T10:11:04.362Z,23.60
2018-09-15T10:13:38.759Z,23.50
2018-09-15T10:16:14.137Z,23.50
2018-09-15T10:18:50.183Z,23.50
2018-09-15T10:21:24.599Z,23.60
2018-09-15T10:23:58.944Z,23.60
2018-09-15T10:26:33.293Z,23.60
2018-09-15T10:29:07.718Z,23.60
2018-09-15T10:31:42.118Z,23.60
2018-09-15T10:34:16.559Z,23.70
2018-09-15T10:36:50.945Z,23.70
2018-09-15T10:39:25.678Z,23.80
2018-09-15T10:41:59.651Z,23.90
2018-09-15T10:44:34.119Z,24.00
2018-09-15T10:47:08.442Z,24.10
2018-09-15T10:49:42.793Z,24.20
2018-09-15T10:52:17.161Z,24.30
2018-09-15T10:54:51.639Z,24.30
2018-09-15T10:57:26.042Z,24.40
2018-09-15T11:00:00.519Z,24.40
2018-09-15T11:02:34.985Z,24.40
2018-09-15T11:05:09.325Z,24.30
2018-09-15T11:07:43.655Z,24.30
2018-09-15T11:10:18.015Z,24.30
2018-09-15T11:12:52.395Z,24.30
2018-09-15T11:15:26.775Z,24.30
2018-09-15T11:18:01.986Z,24.40
2018-09-15T11:20:36.370Z,24.50
2018-09-15T11:23:11.145Z,24.60
2018-09-15T11:25:45.551Z,24.70
2018-09-15T11:28:19.953Z,24.70
2018-09-15T11:30:54.314Z,24.80
2018-09-15T11:33:28.684Z,24.80
2018-09-15T11:36:03.258Z,24.90
2018-09-15T11:38:38.676Z,24.90
2018-09-15T11:41:14.588Z,24.90
2018-09-15T11:43:49.472Z,25.00
2018-09-15T11:46:23.816Z,25.10
2018-09-15T11:48:58.181Z,25.10
2018-09-15T11:51:33.656Z,25.20
2018-09-15T11:54:08.402Z,25.30
2018-09-15T11:56:43.228Z,25.40
2018-09-15T11:59:17.768Z,25.60
2018-09-15T12:01:52.172Z,25.70
2018-09-15T12:04:26.598Z,25.90
2018-09-15T12:07:01.078Z,26.00
2018-09-15T12:09:35.602Z,26.10
2018-09-15T12:12:10.066Z,26.20
2018-09-15T12:14:44.508Z,26.30
2018-09-15T12:17:18.858Z,26.40
2018-09-15T12:19:53.175Z,26.40
2018-09-15T12:22:27.563Z,26.60
2018-09-15T12:25:02.110Z,26.60
2018-09-15T12:27:36.636Z,26.80
2018-09-15T12:30:10.994Z,26.80
2018-09-15T12:32:45.522Z,26.70
2018-09-15T12:35:19.962Z,26.70
2018-09-15T12:37:54.383Z,26.70
2018-09-15T12:40:28.851Z,26.70
2018-09-15T12:43:03.218Z,26.70
2018-09-15T12:45:37.619Z,26.70
2018-09-15T12:48:12.021Z,26.70
2018-09-15T12:50:46.469Z,26.70
2018-09-15T12:53:20.994Z,26.70
2018-09-15T12:55:55.299Z,26.80
2018-09-15T12:58:29.734Z,26.90
2018-09-15T13:01:04.226Z,27.00
2018-09-15T13:03:38.573Z,27.10
2018-09-15T13:06:12.910Z,27.10
2018-09-15T13:08:47.277Z,27.20
2018-09-15T13:11:21.640Z,27.30
2018-09-15T13:13:55.967Z,27.40
2018-09-15T13:16:30.526Z,27.50
2018-09-15T13:19:05.020Z,27.60
2018-09-15T13:21:39.346Z,27.70
2018-09-15T13:24:13.707Z,27.70
2018-09-15T13:26:48.165Z,27.80
2018-09-15T13:29:22.513Z,27.90
2018-09-15T13:31:57.838Z,27.90
2018-09-15T13:34:32.269Z,27.90
2018-09-15T13:37:06.677Z,27.90
2018-09-15T13:39:41.126Z,27.90
2018-09-15T13:42:15.434Z,27.80
2018-09-15T13:44:49.825Z,27.70
2018-09-15T13:47:24.126Z,27.60
2018-09-15T13:49:58.507Z,27.50
2018-09-15T13:52:32.790Z,27.50
2018-09-15T13:55:07.146Z,27.40
2018-09-15T13:57:41.446Z,27.30
2018-09-15T14:00:15.757Z,27.30
2018-09-15T14:02:50.039Z,27.30
2018-09-15T14:05:24.334Z,27.20
2018-09-15T14:07:58.626Z,27.20
2018-09-15T14:10:32.926Z,27.20
2018-09-15T14:13:07.234Z,27.30
2018-09-15T14:15:41.497Z,27.40
2018-09-15T14:18:15.782Z,27.60
2018-09-15T14:20:50.248Z,27.70
2018-09-15T14:23:24.563Z,27.80
2018-09-15T14:25:58.850Z,27.90
2018-09-15T14:28:33.139Z,28.00
2018-09-15T14:31:07.525Z,28.10
2018-09-15T14:33:41.830Z,28.20
2018-09-15T14:36:16.236Z,28.20
2018-09-15T14:38:50.585Z,28.30
2018-09-15T14:41:24.815Z,28.40
2018-09-15T14:43:59.105Z,28.50
2018-09-15T14:46:33.431Z,28.60
2018-09-15T14:49:07.809Z,28.60
2018-09-15T14:51:42.090Z,28.60
2018-09-15T14:54:16.375Z,28.60
2018-09-15T14:56:50.650Z,28.60
2018-09-15T14:59:25.002Z,28.60
2018-09-15T15:01:59.374Z,28.50
2018-09-15T15:04:33.650Z,28.60
2018-09-15T15:07:07.957Z,28.60
2018-09-15T15:09:42.274Z,28.60
2018-09-15T15:12:16.573Z,28.60
2018-09-15T15:14:50.935Z,28.70
2018-09-15T15:17:25.223Z,28.70
2018-09-15T15:19:59.545Z,28.70
2018-09-15T15:22:33.923Z,28.70
2018-09-15T15:25:08.301Z,28.70
2018-09-15T15:27:42.582Z,28.60
2018-09-15T15:30:16.903Z,28.50
2018-09-15T15:32:51.197Z,28.30
2018-09-15T15:35:25.533Z,28.20
2018-09-15T15:37:59.798Z,28.10
2018-09-15T15:40:34.192Z,27.90
2018-09-15T15:43:08.573Z,27.80
2018-09-15T15:45:42.874Z,27.70
2018-09-15T15:48:17.193Z,27.60
2018-09-15T15:50:51.471Z,27.50
2018-09-15T15:53:25.759Z,27.40
2018-09-15T15:56:00.039Z,27.30
2018-09-15T15:58:34.742Z,27.30
2018-09-15T16:01:08.942Z,27.20
2018-09-15T16:03:43.366Z,27.10
2018-09-15T16:06:17.643Z,27.00
2018-09-15T16:08:52.137Z,26.90
2018-09-15T16:11:26.414Z,26.80
2018-09-15T16:14:00.714Z,26.70
2018-09-15T16:16:35.043Z,26.60
2018-09-15T16:19:09.320Z,26.60
2018-09-15T16:21:43.695Z,26.60
2018-09-15T16:24:18.112Z,26.50
2018-09-15T16:26:52.410Z,26.50
2018-09-15T16:29:26.726Z,26.40
2018-09-15T16:32:01.078Z,26.40
2018-09-15T16:34:35.378Z,26.30
2018-09-15T16:37:09.669Z,26.20
2018-09-15T16:39:43.990Z,26.20
2018-09-15T16:42:24.629Z,26.10
2018-09-15T16:44:58.902Z,26.10
2018-09-15T16:47:33.382Z,26.00
2018-09-15T16:50:07.741Z,25.90
2018-09-15T16:52:42.063Z,25.90
2018-09-15T16:55:16.382Z,25.80
2018-09-15T16:57:50.670Z,25.70
2018-09-15T17:00:25.047Z,25.70
2018-09-15T17:03:00.098Z,25.60
2018-09-15T17:05:34.409Z,25.40
2018-09-15T17:08:09.051Z,25.30
2018-09-15T17:10:43.665Z,25.30
2018-09-15T17:13:17.947Z,25.20
2018-09-15T17:15:52.698Z,25.10
2018-09-15T17:18:27.058Z,25.00
2018-09-15T17:21:01.447Z,24.90
2018-09-15T17:23:35.899Z,24.80
2018-09-15T17:26:10.736Z,24.70
2018-09-15T17:28:45.115Z,24.50
2018-09-15T17:31:19.520Z,24.50
2018-09-15T17:33:53.754Z,24.40
2018-09-15T17:36:28.089Z,24.20
2018-09-15T17:39:03.626Z,24.10
2018-09-15T17:41:38.171Z,24.00
2018-09-15T17:44:12.494Z,23.90
2018-09-15T17:46:46.906Z,23.80
2018-09-15T17:49:21.337Z,23.60
2018-09-15T17:51:55.692Z,23.50
2018-09-15T17:54:30.134Z,23.40
2018-09-15T17:57:04.485Z,23.40
2018-09-15T17:59:38.829Z,23.20
2018-09-15T18:02:13.223Z,23.20
2018-09-15T18:04:47.609Z,23.10
2018-09-15T18:07:21.967Z,23.00
2018-09-15T18:09:56.368Z,22.90
2018-09-15T18:12:30.804Z,22.90
2018-09-15T18:15:05.482Z,22.80
2018-09-15T18:17:39.894Z,22.70
2018-09-15T18:20:14.296Z,22.70
2018-09-15T18:22:48.674Z,22.60
2018-09-15T18:25:23.069Z,22.60
2018-09-15T18:27:57.916Z,22.40
2018-09-15T18:30:32.506Z,22.30
2018-09-15T18:33:07.022Z,22.20
2018-09-15T18:35:41.410Z,22.10
2018-09-15T18:38:15.843Z,22.10
2018-09-15T18:40:50.211Z,21.90
2018-09-15T18:43:24.674Z,21.80
2018-09-15T18:45:59.066Z,21.80
2018-09-15T18:48:33.551Z,21.70
2018-09-15T18:51:08.088Z,21.60
2018-09-15T18:53:45.970Z,21.50
2018-09-15T18:56:20.368Z,21.40
2018-09-15T18:58:54.754Z,21.30
2018-09-15T19:01:29.258Z,21.20
2018-09-15T19:04:03.817Z,21.20
2018-09-15T19:06:40.326Z,21.10
2018-09-15T19:09:14.676Z,21.00
2018-09-15T19:11:49.115Z,21.00
2018-09-15T19:14:23.461Z,20.90
2018-09-15T19:16:57.866Z,20.90
2018-09-15T19:19:32.274Z,20.80
2018-09-15T19:22:06.720Z,20.80
2018-09-15T19:24:41.147Z,20.70
2018-09-15T19:27:48.866Z,20.60
2018-09-15T19:30:30.755Z,20.60
2018-09-15T19:33:05.150Z,20.50
2018-09-15T19:35:39.516Z,20.50
2018-09-15T19:38:13.846Z,20.50
2018-09-15T19:40:48.616Z,20.40
2018-09-15T19:43:23.019Z,20.30
2018-09-15T19:45:57.658Z,20.20
2018-09-15T19:48:32.010Z,20.20
2018-09-15T19:51:06.481Z,20.10
2018-09-15T19:53:40.852Z,20.10
2018-09-15T19:56:15.205Z,20.00
2018-09-15T19:58:49.538Z,20.00
2018-09-15T20:01:23.977Z,19.90
2018-09-15T20:03:59.311Z,19.90
2018-09-15T20:06:33.672Z,19.80
2018-09-15T20:09:10.149Z,19.80
2018-09-15T20:11:44.516Z,19.70
2018-09-15T20:14:18.879Z,19.70
2018-09-15T20:16:51.907Z,19.70
2018-09-15T20:19:24.956Z,19.60
2018-09-15T20:21:57.977Z,19.60
2018-09-15T20:24:32.393Z,19.50
2018-09-15T20:27:06.914Z,19.40
2018-09-15T20:29:41.328Z,19.30
2018-09-15T20:32:15.677Z,19.20
2018-09-15T20:34:50.195Z,19.20
2018-09-15T20:37:24.582Z,19.20
2018-09-15T20:39:58.954Z,19.10
2018-09-15T20:42:33.308Z,19.10
2018-09-15T20:45:08.110Z,19.00
2018-09-15T20:47:42.536Z,19.00
2018-09-15T20:50:16.905Z,19.00
2018-09-15T20:52:51.282Z,19.00
2018-09-15T20:55:25.675Z,18.90
2018-09-15T20:58:00.031Z,18.90
2018-09-15T21:00:34.392Z,18.80
2018-09-15T21:03:08.783Z,18.80
2018-09-15T21:05:43.558Z,18.70
2018-09-15T21:08:18.027Z,18.70
2018-09-15T21:10:52.408Z,18.70
2018-09-15T21:13:27.683Z,18.60
2018-09-15T21:16:02.114Z,18.60
2018-09-15T21:18:36.445Z,18.60
2018-09-15T21:21:10.861Z,18.50
2018-09-15T21:23:45.252Z,18.50
2018-09-15T21:26:19.600Z,18.50
2018-09-15T21:28:54.058Z,18.50
2018-09-15T21:31:29.142Z,18.50
2018-09-15T21:34:03.603Z,18.50
2018-09-15T21:36:37.984Z,18.50
2018-09-15T21:39:13.491Z,18.50
2018-09-15T21:41:47.865Z,18.50
2018-09-15T21:44:22.329Z,18.60
2018-09-15T21:46:56.714Z,18.60
2018-09-15T21:49:31.145Z,18.60
2018-09-15T21:52:05.528Z,18.60
2018-09-15T21:54:39.949Z,18.60
2018-09-15T21:57:14.309Z,18.60
2018-09-15T21:59:48.693Z,18.60
2018-09-15T22:02:23.654Z,18.60
2018-09-15T22:04:58.015Z,18.60
2018-09-15T22:07:32.569Z,18.60
2018-09-15T22:10:07.067Z,18.60
2018-09-15T22:12:41.446Z,18.60
2018-09-15T22:15:24.605Z,18.50
2018-09-15T22:17:59.384Z,18.50
2018-09-15T22:20:33.778Z,18.50
2018-09-15T22:23:08.185Z,18.40
2018-09-15T22:25:42.561Z,18.40
2018-09-15T22:28:16.986Z,18.30
2018-09-15T22:30:51.384Z,18.30
2018-09-15T22:33:25.762Z,18.30
2018-09-15T22:36:00.234Z,18.30
2018-09-15T22:38:34.950Z,18.20
2018-09-15T22:41:09.365Z,18.20
2018-09-15T22:43:43.743Z,18.20
2018-09-15T22:46:18.831Z,18.10
2018-09-15T22:48:53.194Z,18.10
2018-09-15T22:51:27.579Z,18.00
2018-09-15T22:54:01.933Z,18.00
2018-09-15T22:56:36.294Z,18.00
2018-09-15T22:59:10.652Z,18.00
2018-09-15T23:01:45.112Z,17.90
2018-09-15T23:04:20.477Z,18.00
2018-09-15T23:06:54.859Z,18.00
2018-09-15T23:09:29.193Z,17.90
2018-09-15T23:12:03.583Z,17.90
2018-09-15T23:14:37.944Z,17.90
2018-09-15T23:17:12.854Z,17.90
2018-09-15T23:19:47.203Z,17.90
2018-09-15T23:22:21.649Z,17.90
2018-09-15T23:24:56.020Z,17.80
2018-09-15T23:27:30.382Z,17.80
2018-09-15T23:30:04.838Z,17.80
2018-09-15T23:32:39.260Z,17.80
2018-09-15T23:35:13.717Z,17.70
2018-09-15T23:37:48.068Z,17.70
2018-09-15T23:40:23.418Z,17.70
2018-09-15T23:42:57.944Z,17.70
2018-09-15T23:45:32.910Z,17.70
2018-09-15T23:48:07.277Z,17.60
2018-09-15T23:50:41.684Z,17.60
2018-09-15T23:53:16.079Z,17.50
2018-09-15T23:55:50.573Z,17.50
2018-09-15T23:58:24.944Z,17.50
